sensor_id;sensor_type;location;lat;lon;timestamp;pressure;altitude;pressure_sealevel;temperature;humidity
28630;BME280;15817;42.130;24.762;2022-10-16T00:01:39;100559.41;;;14.39;74.04
28630;BME280;15817;42.130;24.762;2022-10-16T00:04:05;100558.50;;;14.39;73.96
28630;BME280;15817;42.130;24.762;2022-10-16T00:06:31;100576.31;;;14.43;73.98
28630;BME280;15817;42.130;24.762;2022-10-16T00:09:00;100575.47;;;14.41;74.01
28630;BME280;15817;42.130;24.762;2022-10-16T00:11:34;100566.63;;;14.28;74.29
28630;BME280;15817;42.130;24.762;2022-10-16T00:14:04;100574.69;;;14.22;74.49
28630;BME280;15817;42.130;24.762;2022-10-16T00:16:31;100585.50;;;14.11;74.73
28630;BME280;15817;42.130;24.762;2022-10-16T00:18:57;100577.53;;;14.05;75.14
28630;BME280;15817;42.130;24.762;2022-10-16T00:21:26;100574.91;;;13.99;75.29
28630;BME280;15817;42.130;24.762;2022-10-16T00:23:54;100572.25;;;13.98;75.85
28630;BME280;15817;42.130;24.762;2022-10-16T00:26:23;100574.88;;;14.04;75.68
28630;BME280;15817;42.130;24.762;2022-10-16T00:28:50;100579.28;;;14.09;75.86
28630;BME280;15817;42.130;24.762;2022-10-16T00:31:20;100570.41;;;14.07;76.07
28630;BME280;15817;42.130;24.762;2022-10-16T00:33:50;100581.06;;;14.10;75.97
28630;BME280;15817;42.130;24.762;2022-10-16T00:36:20;100580.22;;;14.04;76.50
28630;BME280;15817;42.130;24.762;2022-10-16T00:38:46;100574.91;;;14.01;76.44
28630;BME280;15817;42.130;24.762;2022-10-16T00:41:15;100586.50;;;13.98;76.76
28630;BME280;15817;42.130;24.762;2022-10-16T00:43:48;100579.44;;;13.90;77.42
28630;BME280;15817;42.130;24.762;2022-10-16T00:46:22;100593.69;;;13.93;77.11
28630;BME280;15817;42.130;24.762;2022-10-16T00:51:24;100607.09;;;13.87;77.59
28630;BME280;15817;42.130;24.762;2022-10-16T00:53:55;100584.88;;;13.77;77.79
28630;BME280;15817;42.130;24.762;2022-10-16T00:56:20;100584.91;;;13.74;77.57
28630;BME280;15817;42.130;24.762;2022-10-16T00:58:46;100598.28;;;13.73;77.73
28630;BME280;15817;42.130;24.762;2022-10-16T01:01:12;100614.38;;;13.70;78.08
28630;BME280;15817;42.130;24.762;2022-10-16T01:03:38;100609.97;;;13.60;78.25
28630;BME280;15817;42.130;24.762;2022-10-16T01:06:21;100621.56;;;13.60;78.34
28630;BME280;15817;42.130;24.762;2022-10-16T01:09:10;100623.34;;;13.55;78.63
28630;BME280;15817;42.130;24.762;2022-10-16T01:12:03;100629.59;;;13.53;78.89
28630;BME280;15817;42.130;24.762;2022-10-16T01:14:46;100634.06;;;13.52;79.08
28630;BME280;15817;42.130;24.762;2022-10-16T01:17:30;100635.91;;;13.46;79.12
28630;BME280;15817;42.130;24.762;2022-10-16T01:28:19;100635.00;;;13.40;79.58
28630;BME280;15817;42.130;24.762;2022-10-16T01:30:47;100637.72;;;13.37;79.70
28630;BME280;15817;42.130;24.762;2022-10-16T01:33:40;100639.56;;;13.25;79.80
28630;BME280;15817;42.130;24.762;2022-10-16T01:36:16;100634.22;;;13.20;80.03
28630;BME280;15817;42.130;24.762;2022-10-16T01:38:47;100649.31;;;13.29;80.29
28630;BME280;15817;42.130;24.762;2022-10-16T01:41:18;100648.47;;;13.25;80.07
28630;BME280;15817;42.130;24.762;2022-10-16T01:43:55;100639.56;;;13.16;80.01
28630;BME280;15817;42.130;24.762;2022-10-16T01:46:26;100654.72;;;13.18;80.21
28630;BME280;15817;42.130;24.762;2022-10-16T01:48:56;100655.59;;;13.10;80.32
28630;BME280;15817;42.130;24.762;2022-10-16T01:51:26;100647.63;;;13.03;80.59
28630;BME280;15817;42.130;24.762;2022-10-16T01:53:55;100668.06;;;13.04;80.71
28630;BME280;15817;42.130;24.762;2022-10-16T01:56:23;100655.66;;;12.97;80.95
28630;BME280;15817;42.130;24.762;2022-10-16T01:59:14;100658.31;;;12.96;81.30
28630;BME280;15817;42.130;24.762;2022-10-16T02:01:45;100661.00;;;12.93;81.35
28630;BME280;15817;42.130;24.762;2022-10-16T02:04:34;100655.69;;;12.85;81.90
28630;BME280;15817;42.130;24.762;2022-10-16T02:07:02;100655.69;;;12.90;81.79
28630;BME280;15817;42.130;24.762;2022-10-16T02:09:30;100650.34;;;12.88;81.99
28630;BME280;15817;42.130;24.762;2022-10-16T02:12:00;100653.88;;;12.96;81.75
28630;BME280;15817;42.130;24.762;2022-10-16T02:14:29;100654.75;;;12.92;81.60
28630;BME280;15817;42.130;24.762;2022-10-16T02:16:57;100657.44;;;12.98;81.50
28630;BME280;15817;42.130;24.762;2022-10-16T02:19:23;100648.56;;;12.90;81.63
28630;BME280;15817;42.130;24.762;2022-10-16T02:22:03;100657.47;;;12.89;81.90
28630;BME280;15817;42.130;24.762;2022-10-16T02:24:35;100658.34;;;12.91;81.75
28630;BME280;15817;42.130;24.762;2022-10-16T02:27:10;100661.00;;;12.97;81.67
28630;BME280;15817;42.130;24.762;2022-10-16T02:29:42;100655.69;;;12.90;81.62
28630;BME280;15817;42.130;24.762;2022-10-16T02:32:16;100658.34;;;12.91;81.63
28630;BME280;15817;42.130;24.762;2022-10-16T02:34:44;100676.13;;;12.95;81.68
28630;BME280;15817;42.130;24.762;2022-10-16T02:37:14;100669.03;;;12.88;81.65
28630;BME280;15817;42.130;24.762;2022-10-16T02:39:48;100673.50;;;12.77;81.79
28630;BME280;15817;42.130;24.762;2022-10-16T02:42:14;100674.41;;;12.75;82.29
28630;BME280;15817;42.130;24.762;2022-10-16T02:44:40;100671.72;;;12.78;82.03
28630;BME280;15817;42.130;24.762;2022-10-16T02:47:06;100690.38;;;12.81;81.98
28630;BME280;15817;42.130;24.762;2022-10-16T02:49:33;100678.84;;;12.69;82.36
28630;BME280;15817;42.130;24.762;2022-10-16T02:51:58;100689.53;;;12.59;82.67
28630;BME280;15817;42.130;24.762;2022-10-16T02:54:29;100685.97;;;12.48;82.74
28630;BME280;15817;42.130;24.762;2022-10-16T02:56:55;100692.22;;;12.39;82.74
28630;BME280;15817;42.130;24.762;2022-10-16T02:59:21;100694.88;;;12.41;82.91
28630;BME280;15817;42.130;24.762;2022-10-16T03:01:46;100687.78;;;12.44;82.39
28630;BME280;15817;42.130;24.762;2022-10-16T03:04:12;100700.22;;;12.50;82.33
28630;BME280;15817;42.130;24.762;2022-10-16T03:06:40;100699.34;;;12.45;82.18
28630;BME280;15817;42.130;24.762;2022-10-16T03:09:06;100700.22;;;12.39;82.46
28630;BME280;15817;42.130;24.762;2022-10-16T03:11:32;100692.22;;;12.44;82.32
28630;BME280;15817;42.130;24.762;2022-10-16T03:13:58;100695.78;;;12.41;81.96
28630;BME280;15817;42.130;24.762;2022-10-16T03:16:24;100696.69;;;12.45;82.23
28630;BME280;15817;42.130;24.762;2022-10-16T03:18:49;100706.47;;;12.43;82.16
28630;BME280;15817;42.130;24.762;2022-10-16T03:21:23;100699.34;;;12.32;82.04
28630;BME280;15817;42.130;24.762;2022-10-16T03:23:48;100708.22;;;12.30;82.37
28630;BME280;15817;42.130;24.762;2022-10-16T03:26:16;100720.69;;;12.32;82.25
28630;BME280;15817;42.130;24.762;2022-10-16T03:28:45;100708.22;;;12.30;82.11
28630;BME280;15817;42.130;24.762;2022-10-16T03:31:10;100703.78;;;12.26;82.27
28630;BME280;15817;42.130;24.762;2022-10-16T03:33:36;100704.66;;;12.29;82.43
28630;BME280;15817;42.130;24.762;2022-10-16T03:36:02;100705.56;;;12.30;82.29
28630;BME280;15817;42.130;24.762;2022-10-16T03:38:28;100712.66;;;12.29;82.33
28630;BME280;15817;42.130;24.762;2022-10-16T03:40:56;100696.66;;;12.28;82.61
28630;BME280;15817;42.130;24.762;2022-10-16T03:43:22;100712.66;;;12.29;82.64
28630;BME280;15817;42.130;24.762;2022-10-16T03:45:49;100713.53;;;12.34;82.54
28630;BME280;15817;42.130;24.762;2022-10-16T03:48:19;100727.78;;;12.37;82.60
28630;BME280;15817;42.130;24.762;2022-10-16T03:50:52;100717.13;;;12.33;83.10
28630;BME280;15817;42.130;24.762;2022-10-16T03:53:17;100711.78;;;12.30;83.36
28630;BME280;15817;42.130;24.762;2022-10-16T03:55:44;100718.88;;;12.28;83.30
28630;BME280;15817;42.130;24.762;2022-10-16T03:58:10;100724.22;;;12.30;83.43
28630;BME280;15817;42.130;24.762;2022-10-16T04:00:44;100728.66;;;12.19;83.92
28630;BME280;15817;42.130;24.762;2022-10-16T04:03:11;100730.44;;;12.14;83.98
28630;BME280;15817;42.130;24.762;2022-10-16T04:05:37;100733.09;;;12.12;84.17
28630;BME280;15817;42.130;24.762;2022-10-16T04:08:03;100732.22;;;12.21;84.03
28630;BME280;15817;42.130;24.762;2022-10-16T04:10:37;100726.00;;;12.22;83.86
28630;BME280;15817;42.130;24.762;2022-10-16T04:13:02;100729.56;;;12.21;84.12
28630;BME280;15817;42.130;24.762;2022-10-16T04:15:34;100734.03;;;12.22;83.98
28630;BME280;15817;42.130;24.762;2022-10-16T04:18:00;100742.91;;;12.22;84.01
28630;BME280;15817;42.130;24.762;2022-10-16T04:20:28;100724.19;;;12.12;84.25
28630;BME280;15817;42.130;24.762;2022-10-16T04:22:55;100716.22;;;12.07;84.18
28630;BME280;15817;42.130;24.762;2022-10-16T04:25:35;100730.41;;;11.97;84.57
28630;BME280;15817;42.130;24.762;2022-10-16T04:28:06;100737.50;;;11.92;84.69
28630;BME280;15817;42.130;24.762;2022-10-16T04:30:32;100738.41;;;11.95;84.76
28630;BME280;15817;42.130;24.762;2022-10-16T04:32:59;100733.94;;;11.93;84.65
28630;BME280;15817;42.130;24.762;2022-10-16T04:35:25;100742.84;;;11.96;84.74
28630;BME280;15817;42.130;24.762;2022-10-16T04:37:54;100734.81;;;11.86;84.70
28630;BME280;15817;42.130;24.762;2022-10-16T04:40:22;100743.72;;;11.88;85.04
28630;BME280;15817;42.130;24.762;2022-10-16T04:42:49;100725.03;;;11.76;84.77
28630;BME280;15817;42.130;24.762;2022-10-16T04:45:18;100741.91;;;11.81;84.84
28630;BME280;15817;42.130;24.762;2022-10-16T04:47:44;100744.56;;;11.79;84.69
28630;BME280;15817;42.130;24.762;2022-10-16T04:50:18;100744.53;;;11.75;84.91
28630;BME280;15817;42.130;24.762;2022-10-16T04:53:00;100750.72;;;11.72;85.03
28630;BME280;15817;42.130;24.762;2022-10-16T04:55:31;100748.94;;;11.64;85.26
28630;BME280;15817;42.130;24.762;2022-10-16T04:58:19;100749.81;;;11.64;85.22
28630;BME280;15817;42.130;24.762;2022-10-16T05:00:45;100762.25;;;11.62;85.14
28630;BME280;15817;42.130;24.762;2022-10-16T05:03:12;100751.53;;;11.50;85.38
28630;BME280;15817;42.130;24.762;2022-10-16T05:08:59;100758.59;;;11.45;85.45
28630;BME280;15817;42.130;24.762;2022-10-16T05:11:30;100754.16;;;11.38;85.61
28630;BME280;15817;42.130;24.762;2022-10-16T05:13:56;100768.34;;;11.43;85.44
28630;BME280;15817;42.130;24.762;2022-10-16T05:16:36;100761.25;;;11.39;85.44
28630;BME280;15817;42.130;24.762;2022-10-16T05:19:04;100772.78;;;11.42;85.41
28630;BME280;15817;42.130;24.762;2022-10-16T05:24:21;100778.97;;;11.32;85.83
28630;BME280;15817;42.130;24.762;2022-10-16T05:26:47;100779.84;;;11.30;86.06
28630;BME280;15817;42.130;24.762;2022-10-16T05:29:14;100792.34;;;11.40;86.53
28630;BME280;15817;42.130;24.762;2022-10-16T05:31:45;100789.69;;;11.40;86.40
28630;BME280;15817;42.130;24.762;2022-10-16T05:34:11;100788.78;;;11.44;86.37
28630;BME280;15817;42.130;24.762;2022-10-16T05:36:43;100787.91;;;11.43;86.70
28630;BME280;15817;42.130;24.762;2022-10-16T05:39:15;100796.84;;;11.56;86.76
28630;BME280;15817;42.130;24.762;2022-10-16T05:42:04;100796.03;;;11.65;86.36
28630;BME280;15817;42.130;24.762;2022-10-16T05:44:40;100801.34;;;11.66;86.72
28630;BME280;15817;42.130;24.762;2022-10-16T05:47:14;100803.16;;;11.75;86.68
28630;BME280;15817;42.130;24.762;2022-10-16T05:49:56;100825.47;;;11.90;86.42
28630;BME280;15817;42.130;24.762;2022-10-16T05:52:29;100815.69;;;11.88;86.37
28630;BME280;15817;42.130;24.762;2022-10-16T05:54:58;100823.69;;;11.92;86.56
28630;BME280;15817;42.130;24.762;2022-10-16T05:57:29;100821.03;;;11.94;86.73
28630;BME280;15817;42.130;24.762;2022-10-16T05:59:55;100820.19;;;11.98;86.58
28630;BME280;15817;42.130;24.762;2022-10-16T06:02:22;100833.53;;;12.00;86.49
28630;BME280;15817;42.130;24.762;2022-10-16T06:04:53;100823.72;;;11.95;86.24
28630;BME280;15817;42.130;24.762;2022-10-16T06:07:27;100822.84;;;11.96;86.04
28630;BME280;15817;42.130;24.762;2022-10-16T06:13:23;100833.50;;;11.95;85.28
28630;BME280;15817;42.130;24.762;2022-10-16T06:16:21;100837.97;;;11.99;85.14
28630;BME280;15817;42.130;24.762;2022-10-16T06:18:53;100835.28;;;11.99;84.79
28630;BME280;15817;42.130;24.762;2022-10-16T06:21:24;100837.06;;;11.97;84.73
28630;BME280;15817;42.130;24.762;2022-10-16T06:23:55;100829.06;;;11.95;84.53
28630;BME280;15817;42.130;24.762;2022-10-16T06:26:26;100840.59;;;11.96;84.67
28630;BME280;15817;42.130;24.762;2022-10-16T06:28:57;100841.50;;;11.98;84.75
28630;BME280;15817;42.130;24.762;2022-10-16T06:31:31;100832.59;;;12.01;84.74
28630;BME280;15817;42.130;24.762;2022-10-16T06:34:26;100846.88;;;12.06;84.77
28630;BME280;15817;42.130;24.762;2022-10-16T06:37:11;100851.31;;;12.13;84.77
28630;BME280;15817;42.130;24.762;2022-10-16T06:39:37;100854.88;;;12.15;84.51
28630;BME280;15817;42.130;24.762;2022-10-16T06:42:03;100855.78;;;12.14;84.64
28630;BME280;15817;42.130;24.762;2022-10-16T06:44:36;100856.69;;;12.20;84.92
28630;BME280;15817;42.130;24.762;2022-10-16T06:47:06;100867.38;;;12.26;84.99
28630;BME280;15817;42.130;24.762;2022-10-16T06:49:39;100855.81;;;12.20;84.87
28630;BME280;15817;42.130;24.762;2022-10-16T06:52:05;100867.38;;;12.22;84.89
28630;BME280;15817;42.130;24.762;2022-10-16T06:54:43;100861.13;;;12.24;84.98
28630;BME280;15817;42.130;24.762;2022-10-16T06:57:15;100873.63;;;12.33;85.05
28630;BME280;15817;42.130;24.762;2022-10-16T07:00:07;100870.06;;;12.29;85.19
28630;BME280;15817;42.130;24.762;2022-10-16T07:02:39;100877.19;;;12.37;85.26
28630;BME280;15817;42.130;24.762;2022-10-16T07:08:14;100863.88;;;12.43;85.25
28630;BME280;15817;42.130;24.762;2022-10-16T07:10:45;100877.22;;;12.50;85.24
28630;BME280;15817;42.130;24.762;2022-10-16T07:13:42;100871.00;;;12.48;85.41
28630;BME280;15817;42.130;24.762;2022-10-16T07:16:20;100875.47;;;12.52;85.24
28630;BME280;15817;42.130;24.762;2022-10-16T07:19:02;100879.91;;;12.61;84.90
28630;BME280;15817;42.130;24.762;2022-10-16T07:21:45;100879.06;;;12.77;84.47
28630;BME280;15817;42.130;24.762;2022-10-16T07:24:13;100876.38;;;12.83;84.20
28630;BME280;15817;42.130;24.762;2022-10-16T07:26:45;100874.63;;;12.90;83.91
28630;BME280;15817;42.130;24.762;2022-10-16T07:29:17;100877.31;;;13.03;83.50
28630;BME280;15817;42.130;24.762;2022-10-16T07:31:44;100883.53;;;13.12;83.30
28630;BME280;15817;42.130;24.762;2022-10-16T07:34:14;100882.66;;;13.20;83.03
28630;BME280;15817;42.130;24.762;2022-10-16T07:36:40;100879.09;;;13.29;82.30
28630;BME280;15817;42.130;24.762;2022-10-16T07:39:06;100876.44;;;13.32;81.45
28630;BME280;15817;42.130;24.762;2022-10-16T07:41:33;100881.75;;;13.43;81.37
28630;BME280;15817;42.130;24.762;2022-10-16T07:44:03;100870.16;;;13.51;81.13
28630;BME280;15817;42.130;24.762;2022-10-16T07:46:35;100871.91;;;13.64;80.85
28630;BME280;15817;42.130;24.762;2022-10-16T07:49:04;100869.25;;;13.70;80.14
28630;BME280;15817;42.130;24.762;2022-10-16T07:51:32;100880.75;;;13.86;79.73
28630;BME280;15817;42.130;24.762;2022-10-16T07:53:58;100874.47;;;13.98;79.52
28630;BME280;15817;42.130;24.762;2022-10-16T07:56:27;100881.56;;;14.12;78.71
28630;BME280;15817;42.130;24.762;2022-10-16T07:58:53;100863.75;;;14.11;78.39
28630;BME280;15817;42.130;24.762;2022-10-16T08:01:21;100870.81;;;14.23;77.99
28630;BME280;15817;42.130;24.762;2022-10-16T08:03:51;100873.44;;;14.32;77.49
28630;BME280;15817;42.130;24.762;2022-10-16T08:06:18;100879.69;;;14.36;77.53
28630;BME280;15817;42.130;24.762;2022-10-16T08:08:47;100890.34;;;14.48;77.44
28630;BME280;15817;42.130;24.762;2022-10-16T08:11:13;100870.72;;;14.51;77.17
28630;BME280;15817;42.130;24.762;2022-10-16T08:13:41;100867.09;;;14.58;76.84
28630;BME280;15817;42.130;24.762;2022-10-16T08:16:10;100865.28;;;14.61;76.55
28630;BME280;15817;42.130;24.762;2022-10-16T08:18:48;100874.13;;;14.75;76.28
28630;BME280;15817;42.130;24.762;2022-10-16T08:21:18;100874.06;;;14.83;75.76
28630;BME280;15817;42.130;24.762;2022-10-16T08:23:50;100874.94;;;14.88;75.58
28630;BME280;15817;42.130;24.762;2022-10-16T08:26:19;100863.25;;;14.97;75.05
28630;BME280;15817;42.130;24.762;2022-10-16T08:28:59;100867.53;;;15.19;74.52
28630;BME280;15817;42.130;24.762;2022-10-16T08:31:29;100871.09;;;15.19;73.75
28630;BME280;15817;42.130;24.762;2022-10-16T08:34:03;100878.16;;;15.31;72.45
28630;BME280;15817;42.130;24.762;2022-10-16T08:36:33;100875.44;;;15.34;72.32
28630;BME280;15817;42.130;24.762;2022-10-16T08:39:01;100866.47;;;15.37;71.75
28630;BME280;15817;42.130;24.762;2022-10-16T08:42:21;100869.91;;;15.49;71.33
28630;BME280;15817;42.130;24.762;2022-10-16T08:48:23;100864.44;;;15.63;71.27
28630;BME280;15817;42.130;24.762;2022-10-16T08:50:53;100864.28;;;15.80;71.03
28630;BME280;15817;42.130;24.762;2022-10-16T08:53:51;100871.38;;;15.82;70.74
28630;BME280;15817;42.130;24.762;2022-10-16T08:56:18;100868.63;;;15.90;72.19
28630;BME280;15817;42.130;24.762;2022-10-16T08:58:47;100864.78;;;16.11;72.43
28630;BME280;15817;42.130;24.762;2022-10-16T09:01:17;100869.94;;;16.27;70.22
28630;BME280;15817;42.130;24.762;2022-10-16T09:07:02;100860.88;;;16.36;68.71
28630;BME280;15817;42.130;24.762;2022-10-16T09:10:02;100868.75;;;16.50;67.46
28630;BME280;15817;42.130;24.762;2022-10-16T09:22:17;100863.19;;;16.65;67.54
28630;BME280;15817;42.130;24.762;2022-10-16T09:24:46;100864.75;;;16.81;74.11
28630;BME280;15817;42.130;24.762;2022-10-16T09:27:15;100852.28;;;16.74;66.61
28630;BME280;15817;42.130;24.762;2022-10-16T09:29:41;100849.22;;;16.97;79.22
28630;BME280;15817;42.130;24.762;2022-10-16T09:32:17;100855.47;;;17.00;70.92
28630;BME280;15817;42.130;24.762;2022-10-16T09:35:18;100843.72;;;17.06;71.99
28630;BME280;15817;42.130;24.762;2022-10-16T09:42:31;100844.44;;;17.17;67.77
28630;BME280;15817;42.130;24.762;2022-10-16T09:44:59;100844.31;;;17.23;67.65
28630;BME280;15817;42.130;24.762;2022-10-16T09:47:27;100836.09;;;17.31;70.43
28630;BME280;15817;42.130;24.762;2022-10-16T09:50:23;100849.25;;;17.48;64.44
28630;BME280;15817;42.130;24.762;2022-10-16T09:53:14;100839.22;;;17.56;63.43
28630;BME280;15817;42.130;24.762;2022-10-16T09:55:50;100827.50;;;17.60;67.06
28630;BME280;15817;42.130;24.762;2022-10-16T09:58:30;100821.22;;;17.61;65.09
28630;BME280;15817;42.130;24.762;2022-10-16T10:01:17;100812.16;;;17.66;72.03
28630;BME280;15817;42.130;24.762;2022-10-16T10:04:02;100811.16;;;17.72;67.85
28630;BME280;15817;42.130;24.762;2022-10-16T10:07:18;100825.19;;;17.88;66.47
28630;BME280;15817;42.130;24.762;2022-10-16T10:09:48;100824.41;;;17.81;60.65
28630;BME280;15817;42.130;24.762;2022-10-16T10:12:50;100808.28;;;17.80;61.72
28630;BME280;15817;42.130;24.762;2022-10-16T10:15:34;100822.41;;;17.91;60.33
28630;BME280;15817;42.130;24.762;2022-10-16T10:18:20;100805.31;;;17.95;60.45
28630;BME280;15817;42.130;24.762;2022-10-16T10:21:18;100809.06;;;17.88;56.33
28630;BME280;15817;42.130;24.762;2022-10-16T10:24:08;100804.72;;;17.79;54.20
28630;BME280;15817;42.130;24.762;2022-10-16T10:26:35;100809.81;;;17.93;57.18
28630;BME280;15817;42.130;24.762;2022-10-16T10:35:14;100790.22;;;17.88;55.02
28630;BME280;15817;42.130;24.762;2022-10-16T10:46:09;100776.91;;;17.79;54.28
28630;BME280;15817;42.130;24.762;2022-10-16T10:49:17;100781.25;;;17.87;55.81
28630;BME280;15817;42.130;24.762;2022-10-16T11:02:13;100769.34;;;17.97;55.54
28630;BME280;15817;42.130;24.762;2022-10-16T11:05:27;100784.34;;;18.09;52.10
28630;BME280;15817;42.130;24.762;2022-10-16T11:08:16;100770.34;;;17.93;51.55
28630;BME280;15817;42.130;24.762;2022-10-16T11:11:02;100769.34;;;17.97;52.28
28630;BME280;15817;42.130;24.762;2022-10-16T11:14:00;100769.28;;;18.00;54.08
28630;BME280;15817;42.130;24.762;2022-10-16T11:16:48;100764.75;;;18.02;52.90
28630;BME280;15817;42.130;24.762;2022-10-16T11:25:21;100762.91;;;18.04;51.17
28630;BME280;15817;42.130;24.762;2022-10-16T11:28:01;100769.13;;;18.08;52.18
28630;BME280;15817;42.130;24.762;2022-10-16T11:33:59;100762.09;;;18.01;51.20
28630;BME280;15817;42.130;24.762;2022-10-16T11:39:43;100764.13;;;17.90;51.16
28630;BME280;15817;42.130;24.762;2022-10-16T11:42:30;100757.06;;;17.86;50.29
28630;BME280;15817;42.130;24.762;2022-10-16T11:51:33;100753.47;;;17.85;50.52
28630;BME280;15817;42.130;24.762;2022-10-16T11:54:16;100743.75;;;17.78;50.32
28630;BME280;15817;42.130;24.762;2022-10-16T11:56:52;100742.81;;;17.79;50.88
28630;BME280;15817;42.130;24.762;2022-10-16T11:59:43;100757.06;;;17.86;50.90
28630;BME280;15817;42.130;24.762;2022-10-16T12:06:10;100753.72;;;17.73;50.75
28630;BME280;15817;42.130;24.762;2022-10-16T12:08:45;100753.78;;;17.70;51.57
28630;BME280;15817;42.130;24.762;2022-10-16T12:11:43;100755.41;;;17.77;50.55
28630;BME280;15817;42.130;24.762;2022-10-16T12:14:39;100746.59;;;17.70;50.19
28630;BME280;15817;42.130;24.762;2022-10-16T12:19:57;100763.59;;;17.72;51.15
28630;BME280;15817;42.130;24.762;2022-10-16T12:22:28;100744.88;;;17.66;51.73
28630;BME280;15817;42.130;24.762;2022-10-16T12:24:55;100755.56;;;17.71;52.08
28630;BME280;15817;42.130;24.762;2022-10-16T12:27:32;100750.25;;;17.66;50.63
28630;BME280;15817;42.130;24.762;2022-10-16T12:30:20;100750.25;;;17.66;51.13
28630;BME280;15817;42.130;24.762;2022-10-16T12:33:21;100763.63;;;17.71;50.63
28630;BME280;15817;42.130;24.762;2022-10-16T12:35:53;100758.34;;;17.66;51.79
28630;BME280;15817;42.130;24.762;2022-10-16T12:38:28;100752.16;;;17.61;50.84
28630;BME280;15817;42.130;24.762;2022-10-16T12:41:05;100741.50;;;17.55;51.18
28630;BME280;15817;42.130;24.762;2022-10-16T12:43:37;100735.16;;;17.59;52.64
28630;BME280;15817;42.130;24.762;2022-10-16T12:48:45;100757.53;;;17.61;52.30
28630;BME280;15817;42.130;24.762;2022-10-16T12:51:24;100766.50;;;17.63;52.49
28630;BME280;15817;42.130;24.762;2022-10-16T12:54:22;100762.81;;;17.67;51.57
28630;BME280;15817;42.130;24.762;2022-10-16T12:59:48;100755.78;;;17.59;51.40
28630;BME280;15817;42.130;24.762;2022-10-16T13:02:55;100767.38;;;17.62;51.39
28630;BME280;15817;42.130;24.762;2022-10-16T13:20:55;100765.69;;;17.55;51.36
28630;BME280;15817;42.130;24.762;2022-10-16T13:29:20;100761.34;;;17.50;51.30
28630;BME280;15817;42.130;24.762;2022-10-16T13:31:47;100763.13;;;17.51;49.97
28630;BME280;15817;42.130;24.762;2022-10-16T13:34:21;100764.03;;;17.50;52.49
28630;BME280;15817;42.130;24.762;2022-10-16T13:37:01;100772.09;;;17.50;51.54
28630;BME280;15817;42.130;24.762;2022-10-16T13:40:12;100765.78;;;17.52;50.74
28630;BME280;15817;42.130;24.762;2022-10-16T13:42:44;100769.31;;;17.54;50.64
28630;BME280;15817;42.130;24.762;2022-10-16T13:45:24;100763.84;;;17.59;50.94
28630;BME280;15817;42.130;24.762;2022-10-16T13:48:09;100762.19;;;17.53;51.12
28630;BME280;15817;42.130;24.762;2022-10-16T13:50:40;100776.38;;;17.60;51.99
28630;BME280;15817;42.130;24.762;2022-10-16T13:53:07;100766.63;;;17.54;52.08
28630;BME280;15817;42.130;24.762;2022-10-16T13:55:40;100761.38;;;17.48;51.63
28630;BME280;15817;42.130;24.762;2022-10-16T13:58:13;100773.88;;;17.51;51.45
28630;BME280;15817;42.130;24.762;2022-10-16T14:00:51;100773.00;;;17.50;50.60
28630;BME280;15817;42.130;24.762;2022-10-16T14:03:24;100776.38;;;17.60;50.60
28630;BME280;15817;42.130;24.762;2022-10-16T14:06:11;100766.56;;;17.57;51.72
28630;BME280;15817;42.130;24.762;2022-10-16T14:09:09;100775.53;;;17.58;51.73
28630;BME280;15817;42.130;24.762;2022-10-16T14:11:46;100780.00;;;17.59;51.02
28630;BME280;15817;42.130;24.762;2022-10-16T14:14:16;100771.09;;;17.54;50.82
28630;BME280;15817;42.130;24.762;2022-10-16T14:16:43;100772.97;;;17.52;51.54
28630;BME280;15817;42.130;24.762;2022-10-16T14:19:29;100783.72;;;17.53;51.78
28630;BME280;15817;42.130;24.762;2022-10-16T14:22:00;100777.50;;;17.50;52.57
28630;BME280;15817;42.130;24.762;2022-10-16T14:24:33;100770.44;;;17.43;53.59
28630;BME280;15817;42.130;24.762;2022-10-16T14:27:00;100773.22;;;17.38;53.69
28630;BME280;15817;42.130;24.762;2022-10-16T14:29:28;100766.16;;;17.32;52.54
28630;BME280;15817;42.130;24.762;2022-10-16T14:34:53;100770.66;;;17.32;53.34
28630;BME280;15817;42.130;24.762;2022-10-16T14:37:28;100771.53;;;17.32;53.66
28630;BME280;15817;42.130;24.762;2022-10-16T14:39:58;100782.44;;;17.25;52.99
28630;BME280;15817;42.130;24.762;2022-10-16T14:42:28;100781.53;;;17.26;53.36
28630;BME280;15817;42.130;24.762;2022-10-16T14:45:07;100779.72;;;17.28;53.80
28630;BME280;15817;42.130;24.762;2022-10-16T14:48:05;100782.41;;;17.26;54.34
28630;BME280;15817;42.130;24.762;2022-10-16T14:50:35;100769.97;;;17.19;55.87
28630;BME280;15817;42.130;24.762;2022-10-16T14:53:10;100776.34;;;17.17;54.23
28630;BME280;15817;42.130;24.762;2022-10-16T14:55:37;100785.19;;;17.22;54.65
28630;BME280;15817;42.130;24.762;2022-10-16T14:58:08;100768.31;;;17.14;55.34
28630;BME280;15817;42.130;24.762;2022-10-16T15:00:38;100772.81;;;17.13;55.61
28630;BME280;15817;42.130;24.762;2022-10-16T15:03:07;100779.06;;;17.14;55.83
28630;BME280;15817;42.130;24.762;2022-10-16T15:05:42;100781.81;;;17.11;54.86
28630;BME280;15817;42.130;24.762;2022-10-16T15:08:11;100776.47;;;17.08;53.49
28630;BME280;15817;42.130;24.762;2022-10-16T15:10:45;100771.97;;;17.08;56.11
28630;BME280;15817;42.130;24.762;2022-10-16T15:13:21;100777.44;;;17.05;58.56
28630;BME280;15817;42.130;24.762;2022-10-16T15:16:07;100781.06;;;17.02;58.08
28630;BME280;15817;42.130;24.762;2022-10-16T15:18:35;100791.78;;;17.04;60.07
28630;BME280;15817;42.130;24.762;2022-10-16T15:21:04;100790.97;;;16.99;62.12